Date,TemperatureHighF,TemperatureAvgF,TemperatureLowF,DewpointHighF,DewpointAvgF,DewpointLowF,HumidityHigh,HumidityAvg,HumidityLow,PressureMaxIn,PressureMinIn,WindSpeedMaxMPH,WindSpeedAvgMPH,GustSpeedMaxMPH,PrecipitationSumIn
2013-3-1,24,19,9,15,12,4,81,75,62,30.42,30.30,30,13,30,0.00
2013-3-2,25,11,-5,13,0,-12,88,63,28,30.42,30.27,16,6,16,0.01
2013-3-3,33,12,-9,12,0,-15,87,62,25,30.28,30.15,13,5,13,0.07
2013-3-4,34,23,9,19,7,0,86,55,25,30.18,30.10,20,7,20,0.01
2013-3-5,28,24,19,20,15,9,90,70,50,30.30,30.09,29,10,29,0.01
2013-3-6,29,20,6,16,13,2,88,75,49,30.41,30.28,24,7,24,0.02
2013-3-7,35,17,-2,16,8,-7,87,70,43,30.49,30.40,13,4,13,0.12
2013-3-8,41,29,18,27,20,12,81,70,54,30.45,30.22,22,12,22,0.16
2013-3-9,34,32,29,33,29,21,97,89,72,30.22,29.79,22,11,22,0.17
2013-3-10,33,31,27,33,28,22,97,87,78,30.00,29.80,33,15,33,0.04
2013-3-11,27,24,20,24,21,17,93,88,79,29.91,29.75,39,16,39,0.04
2013-3-12,24,20,16,18,15,12,89,82,61,30.15,29.79,23,13,23,0.00
2013-3-13,31,18,6,12,4,-2,85,58,24,30.37,30.15,22,9,22,0.08
2013-3-14,35,21,2,27,14,-3,85,75,54,30.32,30.05,17,8,17,0.10
2013-3-15,30,24,15,26,18,11,86,77,63,30.06,29.96,20,10,20,0.10
2013-3-16,24,16,8,14,8,-1,88,72,57,30.27,30.00,25,10,25,0.02
2013-3-17,28,12,-13,9,-4,-20,84,52,24,30.35,30.04,26,10,29,0.02
2013-3-18,30,22,16,26,17,9,88,80,62,30.04,29.55,30,16,30,0.01
2013-3-19,25,16,9,13,6,-2,86,65,41,30.07,29.60,38,22,38,0.01
2013-3-20,16,9,3,5,0,-5,78,66,51,30.17,30.07,22,12,22,0.00
2013-3-21,28,16,6,13,7,1,86,68,46,30.16,30.08,15,6,15,0.00
2013-3-22,30,16,-2,20,9,-7,88,74,56,30.17,30.11,14,5,14,0.01
2013-3-23,34,22,6,20,15,2,90,76,55,30.24,30.17,20,5,20,0.01
2013-3-24,30,24,16,24,18,13,89,80,69,30.20,30.04,25,11,25,0.01
2013-3-25,32,23,15,22,17,12,90,80,59,30.24,30.06,22,6,22,0.01
2013-3-26,37,30,24,23,20,16,85,68,43,30.31,30.24,16,4,16,0.04
2013-3-27,42,32,21,22,18,12,82,60,31,30.35,30.31,20,5,20,0.04
2013-3-28,45,29,12,20,15,9,88,60,28,30.39,30.31,16,5,16,0.00
2013-3-29,49,33,14,28,20,11,88,61,31,30.35,30.15,20,7,20,0.00
2013-3-30,43,36,31,39,34,23,100,91,58,30.15,29.79,20,9,20,0.12
2013-3-31,34,30,22,31,21,7,99,73,39,30.02,29.70,34,14,35,0.01